TFM - Tactical Decision Aid (Experimental) INFO Settings
ID: Runway Winds: CIG/VIS Threshold: METAR Board: Map:

KIAD - Washington-Dulles Intl

Updated at: 1440 UTC 23 Sep 2017
Latest TAF at: 1120 UTC 23 Sep 2017

TAF Board

Time1352Z23/15Z23/16Z23/17Z23/18Z23/19Z23/20Z23/21Z23/22Z23/23Z24/00Z24/01Z24/02Z24/03Z
TypeOBSPRVLPRVLPRVLPRVLPRVLPRVLPRVLPRVLPRVLPRVLPRVLPRVLPRVL
VIS10>6>6>6>6>6>6>6>6>6>6>6>6>6
CIG----------------------------
CoverSCTFEWFEWFEWFEWFEWFEWFEWFEWFEWFEWFEWFEWFEW
FltCatVFRVFRVFRVFRVFRVFRVFRVFRVFRVFRVFRVFRVFRVFR
WX----------------------------
WDir330340340340340340340340340340340340340340
WSpd54444444444444
WGst----------------------------
TAF
KIAD 231120Z 2312/2418 34004KT P6SM FEW250

METAR
KIAD 231352Z 33005KT 10SM FEW150 SCT250 23/14 A3011 RMK AO2 SLP195 T02280139

TAF/METAR Board Legend

Potential Impact
  None Marginal Slight Moderate High
Visibility (sm) >5 3≤X≤5 1≤X<3 0.5≤X<1 <0.5
Ceiling (100 ft) >30 10≤X≤30 4≤X<10 2≤X<4 <2
Wind Speed (kt) <10 10≤X<20 20≤X<30 ≥30
Wind Gust (kt) <15 15≤X<25 25≤X<35 ≥35
Weather No Wx Reported VCTS -TS,-FZRA TS,FZRA +TS,+FZRA




Page loaded:  14:40 UTC  |   07:40 AM Pacific  |   08:40 AM Mountain  |   09:40 AM Central  |   10:40 AM Eastern